Terminal Aerodrome Forecast
Issued by NWS Wilmington, OH

Current Version | Previous Version | Graphics & Text | Print | Product List | Glossary On
Versions: 1 2 3 4 5 6 7 8 9 10 11 12 13 14 15 16 17 18 19 20 21
109
FTUS41 KILN 251739
TAFDAY
TAF
KDAY 251739Z 2518/2618 30012KT P6SM -SHRA OVC025
     FM260000 28010KT P6SM OVC025
     FM260300 29010KT P6SM BKN015 OVC035
     FM260600 27007KT P6SM SCT040
      TEMPO 2608/2612 4SM BR=

USA.gov is the U.S. government's official web portal to all federal, state and local government web resources and services.